Time;durP1;ratioP1;P1;durP2;ratioP2;P2;SDS_P1;SDS_P2;PMS_P1;PMS_P2;Temp;Humidity;BMP_temperature;BMP_pressure;BME280_temperature;BME280_humidity;BME280_pressure;Samples;Min_cycle;Max_cycle;Signal;HPM_P1;HPM_P2
2023/06/28 00:00:38;;;;;;;8.40;3.80;;;;;;;;;;109176;1255;25371;-81
2023/06/28 00:03:24;;;;;;;6.20;3.90;;;;;;;;;;107917;1255;23496;-81
2023/06/28 00:05:51;;;;;;;6.90;3.60;;;;;;;;;;107962;1251;22535;-81
2023/06/28 00:08:17;;;;;;;6.50;4.20;;;;;;;;;;107889;1251;25511;-81
2023/06/28 00:10:44;;;;;;;6.00;3.60;;;;;;;;;;107912;1255;23212;-81
2023/06/28 00:13:10;;;;;;;8.00;3.90;;;;;;;;;;107963;1251;24245;-81
2023/06/28 00:15:37;;;;;;;6.00;4.00;;;;;;;;;;107928;1255;22583;-81
2023/06/28 00:18:03;;;;;;;7.50;3.40;;;;;;;;;;107863;1251;22556;-81
2023/06/28 00:20:29;;;;;;;8.40;3.40;;;;;;;;;;107932;1257;22551;-81
2023/06/28 00:22:56;;;;;;;6.70;3.20;;;;;;;;;;107951;1253;22552;-81
2023/06/28 00:25:22;;;;;;;8.10;3.40;;;;;;;;;;107873;1251;24361;-81
2023/06/28 00:27:48;;;;;;;6.90;3.10;;;;;;;;;;107926;1251;22546;-81
2023/06/28 00:30:15;;;;;;;5.80;3.20;;;;;;;;;;107945;1251;25507;-81
2023/06/28 00:32:42;;;;;;;4.50;2.90;;;;;;;;;;107929;1251;22639;-82
2023/06/28 00:35:08;;;;;;;7.20;2.70;;;;;;;;;;107967;1251;22529;-81
2023/06/28 00:37:34;;;;;;;9.30;4.20;;;;;;;;;;107988;1250;22558;-81
2023/06/28 00:40:03;;;;;;;6.00;3.30;;;;;;;;;;107909;1252;23200;-81
2023/06/28 00:42:29;;;;;;;5.30;3.40;;;;;;;;;;109182;1252;22524;-81
2023/06/28 00:44:56;;;;;;;5.00;3.00;;;;;;;;;;108003;1251;25300;-81
2023/06/28 00:47:22;;;;;;;8.70;3.30;;;;;;;;;;107941;1251;25786;-81
2023/06/28 00:49:50;;;;;;;6.30;2.90;;;;;;;;;;107930;1251;25052;-81
2023/06/28 00:52:16;;;;;;;7.70;3.30;;;;;;;;;;107775;1251;22520;-81
2023/06/28 00:54:43;;;;;;;8.20;3.10;;;;;;;;;;107872;1251;22697;-81
2023/06/28 00:57:09;;;;;;;6.70;3.40;;;;;;;;;;107930;1253;22553;-81
2023/06/28 00:59:35;;;;;;;6.10;3.30;;;;;;;;;;107955;1256;22648;-81
2023/06/28 01:02:02;;;;;;;5.00;3.20;;;;;;;;;;107757;1257;22683;-81
2023/06/28 01:04:28;;;;;;;5.90;3.50;;;;;;;;;;107902;1251;25481;-81
2023/06/28 01:06:55;;;;;;;7.30;3.20;;;;;;;;;;107967;1251;22991;-81
2023/06/28 01:09:22;;;;;;;7.60;3.20;;;;;;;;;;107905;1255;26587;-81
2023/06/28 01:11:49;;;;;;;5.70;2.90;;;;;;;;;;107747;1251;22567;-81
2023/06/28 01:14:16;;;;;;;7.80;3.10;;;;;;;;;;107968;1251;22536;-81
2023/06/28 01:16:42;;;;;;;5.50;3.20;;;;;;;;;;107790;1252;22571;-81
2023/06/28 01:19:09;;;;;;;4.10;2.50;;;;;;;;;;107904;1251;22540;-81
2023/06/28 01:21:37;;;;;;;7.10;2.90;;;;;;;;;;107879;1251;23140;-81
2023/06/28 01:24:04;;;;;;;5.10;3.30;;;;;;;;;;107829;1251;23953;-81
2023/06/28 01:26:30;;;;;;;6.00;3.10;;;;;;;;;;108046;1251;24193;-81
2023/06/28 01:28:57;;;;;;;6.40;3.60;;;;;;;;;;107761;1251;25055;-81
2023/06/28 01:31:23;;;;;;;4.90;3.20;;;;;;;;;;107904;1257;22568;-81
2023/06/28 01:33:49;;;;;;;5.40;3.30;;;;;;;;;;107808;1251;22630;-81
2023/06/28 01:36:16;;;;;;;5.80;2.80;;;;;;;;;;107977;1251;22644;-81
2023/06/28 01:38:42;;;;;;;4.90;3.30;;;;;;;;;;107957;1249;22599;-81
2023/06/28 01:41:09;;;;;;;9.10;3.30;;;;;;;;;;107945;1251;22684;-81
2023/06/28 01:43:35;;;;;;;6.10;3.20;;;;;;;;;;107917;1254;22543;-81
2023/06/28 01:46:01;;;;;;;6.80;3.10;;;;;;;;;;107814;1257;22563;-81
2023/06/28 01:48:28;;;;;;;8.20;3.00;;;;;;;;;;107819;1252;22535;-81
2023/06/28 01:50:54;;;;;;;9.50;3.50;;;;;;;;;;107955;1251;23255;-81
2023/06/28 01:53:20;;;;;;;4.10;3.10;;;;;;;;;;107648;1251;22657;-81
2023/06/28 01:55:47;;;;;;;4.90;2.40;;;;;;;;;;107964;1251;22522;-81
2023/06/28 01:58:14;;;;;;;7.60;2.80;;;;;;;;;;110629;1251;22357;-79
2023/06/28 02:00:40;;;;;;;5.40;3.00;;;;;;;;;;108610;1251;22592;-81
2023/06/28 02:03:06;;;;;;;5.20;3.10;;;;;;;;;;107958;1251;23368;-81
2023/06/28 02:05:33;;;;;;;8.10;3.20;;;;;;;;;;107901;1267;22555;-81
2023/06/28 02:08:01;;;;;;;5.30;3.80;;;;;;;;;;107933;1255;26522;-81
2023/06/28 02:10:27;;;;;;;13.70;5.50;;;;;;;;;;110578;1251;22075;-81
2023/06/28 02:12:54;;;;;;;9.10;2.70;;;;;;;;;;110580;1251;22379;-80
2023/06/28 02:15:21;;;;;;;35.80;5.40;;;;;;;;;;110638;1251;23507;-80
2023/06/28 02:17:47;;;;;;;8.10;3.00;;;;;;;;;;108037;1251;22535;-81
2023/06/28 02:20:14;;;;;;;6.20;3.00;;;;;;;;;;107746;1251;25398;-81
2023/06/28 02:22:40;;;;;;;6.30;3.00;;;;;;;;;;107917;1251;24206;-81
2023/06/28 02:25:07;;;;;;;5.60;3.10;;;;;;;;;;107956;1251;22536;-81
2023/06/28 02:27:34;;;;;;;5.30;3.00;;;;;;;;;;108005;1249;22571;-81
2023/06/28 02:30:00;;;;;;;11.70;3.30;;;;;;;;;;108749;1254;22820;-81
2023/06/28 02:32:30;;;;;;;6.10;2.80;;;;;;;;;;110726;1251;22163;-79
2023/06/28 02:34:57;;;;;;;5.60;3.20;;;;;;;;;;110283;1250;22685;-79
2023/06/28 02:37:24;;;;;;;5.50;3.20;;;;;;;;;;107959;1251;22628;-81
2023/06/28 02:39:50;;;;;;;8.60;3.10;;;;;;;;;;107916;1251;26532;-81
2023/06/28 02:42:17;;;;;;;4.90;2.70;;;;;;;;;;108442;1251;23033;-81
2023/06/28 02:44:44;;;;;;;6.40;3.10;;;;;;;;;;109208;1251;25398;-81
2023/06/28 02:47:10;;;;;;;6.80;3.00;;;;;;;;;;107983;1251;22640;-81
2023/06/28 02:49:36;;;;;;;8.90;3.50;;;;;;;;;;107948;1251;24463;-81
2023/06/28 02:52:03;;;;;;;6.80;3.10;;;;;;;;;;107940;1251;22767;-81
2023/06/28 02:54:29;;;;;;;9.70;3.50;;;;;;;;;;107921;1251;23902;-81
2023/06/28 02:56:56;;;;;;;6.30;2.80;;;;;;;;;;107958;1251;25504;-83
2023/06/28 02:59:22;;;;;;;6.90;2.90;;;;;;;;;;107946;1251;22961;-82
2023/06/28 03:01:48;;;;;;;5.20;2.50;;;;;;;;;;107919;1251;23318;-81
2023/06/28 03:04:15;;;;;;;5.20;3.00;;;;;;;;;;107909;1251;22587;-81
2023/06/28 03:06:41;;;;;;;6.20;3.30;;;;;;;;;;107915;1256;24727;-81
2023/06/28 03:09:08;;;;;;;3.70;3.00;;;;;;;;;;107730;1251;22531;-81
2023/06/28 03:11:35;;;;;;;4.40;2.90;;;;;;;;;;107948;1256;23829;-81
2023/06/28 03:14:01;;;;;;;7.60;3.30;;;;;;;;;;107926;1251;25513;-81
2023/06/28 03:16:28;;;;;;;6.50;3.30;;;;;;;;;;107914;1251;22587;-81
2023/06/28 03:18:54;;;;;;;8.80;4.40;;;;;;;;;;107937;1251;22635;-81
2023/06/28 03:21:21;;;;;;;9.70;5.00;;;;;;;;;;108006;1251;22711;-81
2023/06/28 03:23:47;;;;;;;7.90;4.50;;;;;;;;;;107956;1251;22557;-81
2023/06/28 03:26:14;;;;;;;17.10;9.00;;;;;;;;;;107945;1253;23189;-81
2023/06/28 03:28:40;;;;;;;20.80;10.10;;;;;;;;;;108050;1254;22523;-81
2023/06/28 03:31:06;;;;;;;28.30;12.90;;;;;;;;;;107890;1251;24372;-81
2023/06/28 03:33:33;;;;;;;25.30;11.60;;;;;;;;;;107953;1251;22647;-81
2023/06/28 03:35:59;;;;;;;28.50;14.50;;;;;;;;;;107759;1257;26498;-81
2023/06/28 03:38:26;;;;;;;22.10;10.30;;;;;;;;;;107984;1251;22593;-81
2023/06/28 03:40:52;;;;;;;26.50;10.30;;;;;;;;;;107983;1251;22618;-81
2023/06/28 03:43:18;;;;;;;28.00;11.70;;;;;;;;;;107907;1251;22639;-82
2023/06/28 03:45:45;;;;;;;18.50;10.80;;;;;;;;;;107909;1251;22565;-81
2023/06/28 03:48:11;;;;;;;20.70;11.60;;;;;;;;;;107919;1251;22638;-81
2023/06/28 03:50:38;;;;;;;17.50;8.60;;;;;;;;;;107965;1251;22539;-81
2023/06/28 03:53:04;;;;;;;8.00;5.80;;;;;;;;;;107932;1266;25380;-81
2023/06/28 03:55:30;;;;;;;10.30;5.70;;;;;;;;;;107994;1251;25295;-81
2023/06/28 03:57:57;;;;;;;9.40;4.80;;;;;;;;;;107925;1254;22527;-81
2023/06/28 04:00:23;;;;;;;8.70;4.10;;;;;;;;;;107928;1251;26350;-81
2023/06/28 04:02:50;;;;;;;8.00;4.10;;;;;;;;;;107938;1251;24283;-81
2023/06/28 04:05:16;;;;;;;4.10;3.00;;;;;;;;;;107938;1251;24866;-82
2023/06/28 04:07:43;;;;;;;7.10;3.20;;;;;;;;;;108017;1253;22636;-82
2023/06/28 04:10:09;;;;;;;6.00;3.30;;;;;;;;;;107756;1251;25265;-81
2023/06/28 04:12:35;;;;;;;9.80;3.60;;;;;;;;;;107978;1251;22833;-81
2023/06/28 04:15:02;;;;;;;4.90;2.60;;;;;;;;;;107896;1251;22583;-81
2023/06/28 04:17:29;;;;;;;6.50;2.70;;;;;;;;;;107958;1251;25410;-81
2023/06/28 04:19:56;;;;;;;5.50;2.70;;;;;;;;;;107925;1251;22998;-81
2023/06/28 04:22:22;;;;;;;6.50;3.40;;;;;;;;;;107924;1251;22616;-81
2023/06/28 04:24:49;;;;;;;9.10;4.20;;;;;;;;;;107916;1251;23369;-81
2023/06/28 04:27:15;;;;;;;6.40;2.50;;;;;;;;;;107941;1251;22632;-81
2023/06/28 04:29:42;;;;;;;5.00;2.80;;;;;;;;;;107932;1251;22586;-81
2023/06/28 04:32:20;;;;;;;13.60;4.40;;;;;;;;;;107951;1251;25454;-81
2023/06/28 04:34:47;;;;;;;5.90;3.10;;;;;;;;;;107951;1251;22562;-81
2023/06/28 04:37:14;;;;;;;5.70;3.00;;;;;;;;;;108000;1251;22741;-81
2023/06/28 04:39:40;;;;;;;6.80;3.60;;;;;;;;;;107960;1251;22546;-81
2023/06/28 04:42:06;;;;;;;7.60;3.60;;;;;;;;;;107896;1250;22525;-81
2023/06/28 04:44:36;;;;;;;4.80;3.10;;;;;;;;;;107935;1252;22632;-81
2023/06/28 04:47:03;;;;;;;9.10;4.00;;;;;;;;;;107964;1251;22542;-81
2023/06/28 04:49:30;;;;;;;7.60;3.50;;;;;;;;;;107980;1252;22539;-81
2023/06/28 04:51:56;;;;;;;7.10;3.20;;;;;;;;;;107919;1251;24366;-82
2023/06/28 04:54:22;;;;;;;4.90;2.90;;;;;;;;;;107922;1251;25315;-82
2023/06/28 04:56:49;;;;;;;3.80;2.40;;;;;;;;;;107909;1251;25371;-81
2023/06/28 04:59:15;;;;;;;10.00;2.70;;;;;;;;;;107905;1251;22650;-81
2023/06/28 05:01:42;;;;;;;8.30;2.50;;;;;;;;;;107909;1251;25383;-81
2023/06/28 05:04:08;;;;;;;11.10;3.10;;;;;;;;;;108009;1250;22591;-81
2023/06/28 05:06:38;;;;;;;8.50;3.00;;;;;;;;;;107896;1251;25503;-82
2023/06/28 05:09:04;;;;;;;7.10;3.20;;;;;;;;;;108137;1251;22643;-82
2023/06/28 05:11:30;;;;;;;5.30;2.70;;;;;;;;;;108106;1251;22579;-81
2023/06/28 05:13:57;;;;;;;11.40;5.10;;;;;;;;;;108194;1254;25467;-82
2023/06/28 05:16:23;;;;;;;7.80;2.60;;;;;;;;;;108174;1251;24319;-81
2023/06/28 05:18:49;;;;;;;5.40;2.50;;;;;;;;;;108005;1250;22683;-81
2023/06/28 05:21:16;;;;;;;5.30;3.20;;;;;;;;;;107896;1251;23288;-82
2023/06/28 05:23:42;;;;;;;4.60;2.50;;;;;;;;;;108020;1251;22649;-82
2023/06/28 05:26:09;;;;;;;4.80;2.50;;;;;;;;;;108043;1251;22545;-81
2023/06/28 05:28:35;;;;;;;10.50;8.30;;;;;;;;;;108179;1251;24882;-82
2023/06/28 05:31:02;;;;;;;8.30;5.90;;;;;;;;;;107975;1251;22580;-81
2023/06/28 05:33:28;;;;;;;6.80;3.30;;;;;;;;;;108022;1251;24652;-82
2023/06/28 05:35:55;;;;;;;3.60;1.90;;;;;;;;;;107995;1251;22947;-80
2023/06/28 05:38:21;;;;;;;10.20;1.90;;;;;;;;;;108053;1251;22575;-80
2023/06/28 05:40:50;;;;;;;5.20;2.40;;;;;;;;;;107976;1251;22523;-79
2023/06/28 05:43:16;;;;;;;;;;;;;;;;;;107880;1252;22502;-80
2023/06/28 05:45:43;;;;;;;14.30;7.80;;;;;;;;;;107553;1254;22538;-80
2023/06/28 05:48:09;;;;;;;9.70;5.10;;;;;;;;;;107837;1251;24104;-79
2023/06/28 05:50:36;;;;;;;18.10;9.70;;;;;;;;;;107982;1252;26212;-80
2023/06/28 05:53:02;;;;;;;11.70;5.40;;;;;;;;;;108021;1255;22654;-82
2023/06/28 05:55:28;;;;;;;9.40;4.80;;;;;;;;;;108254;1251;22543;-79
2023/06/28 05:57:55;;;;;;;6.60;4.20;;;;;;;;;;108427;1251;22785;-80
2023/06/28 06:00:22;;;;;;;5.10;2.50;;;;;;;;;;108107;1251;25450;-80
2023/06/28 06:02:49;;;;;;;4.20;2.10;;;;;;;;;;108687;1251;22500;-80
2023/06/28 06:05:15;;;;;;;3.60;2.20;;;;;;;;;;107901;1251;22639;-80
2023/06/28 06:07:42;;;;;;;2.50;1.60;;;;;;;;;;107721;1254;22562;-79
2023/06/28 06:10:11;;;;;;;6.70;1.90;;;;;;;;;;108244;1251;24381;-79
2023/06/28 06:12:38;;;;;;;3.50;1.90;;;;;;;;;;108362;1251;22582;-80
2023/06/28 06:15:05;;;;;;;7.70;2.40;;;;;;;;;;108312;1250;22552;-80
2023/06/28 06:17:31;;;;;;;8.00;2.50;;;;;;;;;;108381;1250;22517;-80
2023/06/28 06:19:59;;;;;;;6.10;2.30;;;;;;;;;;107944;1252;22906;-80
2023/06/28 06:22:26;;;;;;;9.20;4.90;;;;;;;;;;108185;1251;22540;-80
2023/06/28 06:24:52;;;;;;;10.80;6.10;;;;;;;;;;107577;1255;22646;-80
2023/06/28 06:27:19;;;;;;;5.80;3.10;;;;;;;;;;107660;1251;24394;-80
2023/06/28 06:29:45;;;;;;;7.50;3.20;;;;;;;;;;107574;1251;22642;-80
2023/06/28 06:32:12;;;;;;;9.20;4.40;;;;;;;;;;108204;1251;22686;-80
2023/06/28 06:34:39;;;;;;;9.60;4.50;;;;;;;;;;108118;1251;24367;-80
2023/06/28 06:37:11;;;;;;;8.90;4.80;;;;;;;;;;108328;1251;23106;-79
2023/06/28 06:39:39;;;;;;;10.30;5.70;;;;;;;;;;108272;1251;24372;-80
2023/06/28 06:42:06;;;;;;;5.60;3.50;;;;;;;;;;108185;1251;23328;-80
2023/06/28 06:44:32;;;;;;;8.20;2.40;;;;;;;;;;108187;1251;22862;-80
2023/06/28 06:46:59;;;;;;;7.00;3.20;;;;;;;;;;108374;1251;22733;-79
2023/06/28 06:49:25;;;;;;;4.40;1.80;;;;;;;;;;108235;1251;23078;-80
2023/06/28 06:51:51;;;;;;;3.20;1.90;;;;;;;;;;108163;1254;22578;-79
2023/06/28 06:54:18;;;;;;;4.30;1.90;;;;;;;;;;108176;1251;25164;-80
2023/06/28 06:56:44;;;;;;;2.10;1.60;;;;;;;;;;108386;1251;23123;-80
2023/06/28 06:59:10;;;;;;;6.30;2.00;;;;;;;;;;108281;1251;23513;-80
2023/06/28 07:01:37;;;;;;;4.70;1.70;;;;;;;;;;108243;1251;24340;-80
2023/06/28 07:04:03;;;;;;;5.50;2.00;;;;;;;;;;108104;1250;22590;-80
2023/06/28 07:06:30;;;;;;;7.10;1.80;;;;;;;;;;108250;1251;24232;-80
2023/06/28 07:08:57;;;;;;;3.40;2.20;;;;;;;;;;108206;1252;154097;-79
2023/06/28 07:11:25;;;;;;;8.10;2.70;;;;;;;;;;108228;1251;22633;-80
2023/06/28 07:13:52;;;;;;;3.60;1.60;;;;;;;;;;108283;1251;22808;-79
2023/06/28 07:16:18;;;;;;;5.90;2.10;;;;;;;;;;108254;1251;23066;-79
2023/06/28 07:18:44;;;;;;;5.00;1.80;;;;;;;;;;108189;1251;22545;-80
2023/06/28 07:21:14;;;;;;;2.90;1.60;;;;;;;;;;108358;1251;23962;-80
2023/06/28 07:23:40;;;;;;;3.60;1.60;;;;;;;;;;108225;1251;25282;-80
2023/06/28 07:26:08;;;;;;;5.50;1.50;;;;;;;;;;108210;1251;22577;-80
2023/06/28 07:28:34;;;;;;;4.00;1.70;;;;;;;;;;108310;1251;25509;-80
2023/06/28 07:31:01;;;;;;;4.70;2.30;;;;;;;;;;108916;1251;24228;-80
2023/06/28 07:33:29;;;;;;;6.30;3.10;;;;;;;;;;108226;1251;23257;-81
2023/06/28 07:35:55;;;;;;;3.40;2.30;;;;;;;;;;108170;1251;24361;-81
2023/06/28 07:38:22;;;;;;;4.10;1.80;;;;;;;;;;108280;1249;22542;-81
2023/06/28 07:40:48;;;;;;;4.40;2.70;;;;;;;;;;108319;1251;23628;-81
2023/06/28 07:43:15;;;;;;;2.80;1.60;;;;;;;;;;108357;1251;22557;-81
2023/06/28 07:45:42;;;;;;;3.50;1.90;;;;;;;;;;108265;1251;22520;-81
2023/06/28 07:48:08;;;;;;;4.30;2.10;;;;;;;;;;108348;1249;23011;-81
2023/06/28 07:50:35;;;;;;;8.70;1.80;;;;;;;;;;108267;1251;22528;-81
2023/06/28 07:53:01;;;;;;;3.50;1.70;;;;;;;;;;108366;1250;24298;-82
2023/06/28 07:55:28;;;;;;;6.00;1.80;;;;;;;;;;108363;1251;25371;-81
2023/06/28 07:57:57;;;;;;;2.90;1.80;;;;;;;;;;108344;1254;22565;-81
2023/06/28 08:00:24;;;;;;;5.00;1.80;;;;;;;;;;108226;1251;22779;-81
2023/06/28 08:02:50;;;;;;;4.10;2.60;;;;;;;;;;108177;1255;22562;-81
2023/06/28 08:05:17;;;;;;;4.60;2.30;;;;;;;;;;108244;1251;23147;-81
2023/06/28 08:07:43;;;;;;;5.70;3.50;;;;;;;;;;108233;1251;22591;-81
2023/06/28 08:10:10;;;;;;;18.20;2.70;;;;;;;;;;108049;1251;22609;-81
2023/06/28 08:12:36;;;;;;;6.20;3.50;;;;;;;;;;108145;1252;23162;-81
2023/06/28 08:15:03;;;;;;;5.10;2.10;;;;;;;;;;108161;1251;24353;-81
2023/06/28 08:17:29;;;;;;;5.10;1.80;;;;;;;;;;107964;1251;23640;-81
2023/06/28 08:19:55;;;;;;;3.20;2.00;;;;;;;;;;108163;1251;25387;-81
2023/06/28 08:22:22;;;;;;;4.80;2.00;;;;;;;;;;108086;1253;22578;-81
2023/06/28 08:24:49;;;;;;;4.90;1.70;;;;;;;;;;108119;1251;22562;-81
2023/06/28 08:27:15;;;;;;;3.60;1.10;;;;;;;;;;108461;1251;22659;-82
2023/06/28 08:29:42;;;;;;;3.00;1.20;;;;;;;;;;108210;1251;25527;-81
2023/06/28 08:32:09;;;;;;;3.10;1.40;;;;;;;;;;108253;1251;22627;-81
2023/06/28 08:34:35;;;;;;;3.10;1.10;;;;;;;;;;108094;1257;23051;-81
2023/06/28 08:37:03;;;;;;;5.80;5.20;;;;;;;;;;108369;1251;24228;-82
2023/06/28 08:39:30;;;;;;;6.10;2.00;;;;;;;;;;108310;1251;22539;-82
2023/06/28 08:41:56;;;;;;;4.50;1.60;;;;;;;;;;108328;1251;22671;-81
2023/06/28 08:44:23;;;;;;;6.70;2.20;;;;;;;;;;107964;1251;24181;-81
2023/06/28 08:46:49;;;;;;;8.30;1.50;;;;;;;;;;108213;1251;22637;-82
2023/06/28 08:49:15;;;;;;;6.00;1.90;;;;;;;;;;108104;1251;22537;-81
2023/06/28 08:51:42;;;;;;;5.50;1.40;;;;;;;;;;108098;1251;25464;-81
2023/06/28 08:54:09;;;;;;;3.40;1.70;;;;;;;;;;108491;1251;22518;-81
2023/06/28 08:56:35;;;;;;;4.10;1.40;;;;;;;;;;108286;1251;23200;-82
2023/06/28 08:59:02;;;;;;;2.80;1.60;;;;;;;;;;108234;1251;22534;-81
2023/06/28 09:01:29;;;;;;;6.70;1.60;;;;;;;;;;108195;1251;22707;-83
2023/06/28 09:03:56;;;;;;;4.90;1.80;;;;;;;;;;108231;1251;22612;-82
2023/06/28 09:06:22;;;;;;;4.50;1.80;;;;;;;;;;108325;1254;25374;-82
2023/06/28 09:08:49;;;;;;;5.80;1.40;;;;;;;;;;108259;1251;22518;-82
2023/06/28 09:11:16;;;;;;;3.60;1.70;;;;;;;;;;108209;1254;22530;-81
2023/06/28 09:13:43;;;;;;;3.30;1.90;;;;;;;;;;108287;1251;22543;-82
2023/06/28 09:16:09;;;;;;;3.00;1.80;;;;;;;;;;108234;1249;22565;-82
2023/06/28 09:18:36;;;;;;;5.20;1.40;;;;;;;;;;108158;1251;22556;-82
2023/06/28 09:21:03;;;;;;;4.70;1.70;;;;;;;;;;108198;1250;22628;-81
2023/06/28 09:23:30;;;;;;;3.60;1.70;;;;;;;;;;108250;1250;22627;-81
2023/06/28 09:25:56;;;;;;;5.90;1.70;;;;;;;;;;108204;1250;22562;-82
2023/06/28 09:28:23;;;;;;;5.10;1.80;;;;;;;;;;108417;1251;24184;-82
2023/06/28 09:30:53;;;;;;;3.60;1.30;;;;;;;;;;108331;1251;24347;-84
2023/06/28 09:33:20;;;;;;;2.50;1.50;;;;;;;;;;108249;1251;22620;-81
2023/06/28 09:35:46;;;;;;;3.80;1.30;;;;;;;;;;108313;1252;22523;-82
2023/06/28 09:38:12;;;;;;;2.30;1.40;;;;;;;;;;108421;1251;26982;-82
2023/06/28 09:40:39;;;;;;;7.20;1.80;;;;;;;;;;108173;1250;25899;-82
2023/06/28 09:43:05;;;;;;;3.70;1.30;;;;;;;;;;108313;1251;22619;-82
2023/06/28 09:45:36;;;;;;;4.10;1.60;;;;;;;;;;108322;1251;25241;-83
2023/06/28 09:48:03;;;;;;;4.50;1.60;;;;;;;;;;110152;1251;22579;-82
2023/06/28 09:50:37;;;;;;;5.30;2.10;;;;;;;;;;108354;1251;22529;-83
2023/06/28 09:53:25;;;;;;;2.70;1.30;;;;;;;;;;108216;1250;24401;-82
2023/06/28 09:55:52;;;;;;;5.70;1.60;;;;;;;;;;109035;1250;24281;-82
2023/06/28 09:58:19;;;;;;;7.10;1.50;;;;;;;;;;108574;1251;23112;-82
2023/06/28 10:00:46;;;;;;;3.20;1.30;;;;;;;;;;108509;1251;22582;-81
2023/06/28 10:03:12;;;;;;;6.20;1.10;;;;;;;;;;108572;1255;22559;-82
2023/06/28 10:05:40;;;;;;;7.10;1.90;;;;;;;;;;108704;1251;23000;-82
2023/06/28 10:08:07;;;;;;;3.80;1.70;;;;;;;;;;108736;1251;22865;-81
2023/06/28 10:10:37;;;;;;;3.80;1.20;;;;;;;;;;108537;1251;24290;-82
2023/06/28 10:13:03;;;;;;;3.50;1.70;;;;;;;;;;108593;1251;23919;-82
2023/06/28 10:15:34;;;;;;;2.30;1.30;;;;;;;;;;108647;1254;22633;-82
2023/06/28 10:18:00;;;;;;;5.60;1.20;;;;;;;;;;110409;1251;25392;-83
2023/06/28 10:20:27;;;;;;;7.30;1.40;;;;;;;;;;108305;1251;24241;-83
2023/06/28 10:22:53;;;;;;;2.60;1.00;;;;;;;;;;109672;1252;23246;-82
2023/06/28 10:25:22;;;;;;;4.00;1.20;;;;;;;;;;108331;1251;22546;-83
2023/06/28 10:27:48;;;;;;;2.90;1.50;;;;;;;;;;108552;1252;22551;-82
2023/06/28 10:30:15;;;;;;;3.80;1.10;;;;;;;;;;108431;1251;23643;-82
2023/06/28 10:32:42;;;;;;;2.30;1.80;;;;;;;;;;108448;1254;23150;-82
2023/06/28 10:35:08;;;;;;;2.60;1.50;;;;;;;;;;108518;1250;23171;-82
2023/06/28 10:37:35;;;;;;;2.50;1.40;;;;;;;;;;108514;1254;25402;-81
2023/06/28 10:40:01;;;;;;;3.40;0.90;;;;;;;;;;108348;1249;25332;-81
2023/06/28 10:42:36;;;;;;;2.10;0.90;;;;;;;;;;108329;1251;25299;-81
2023/06/28 10:45:02;;;;;;;5.70;1.40;;;;;;;;;;108433;1249;24275;-81
2023/06/28 10:47:29;;;;;;;5.10;1.60;;;;;;;;;;108182;1251;25381;-81
2023/06/28 10:50:09;;;;;;;3.20;1.20;;;;;;;;;;108187;1253;23008;-81
2023/06/28 10:52:46;;;;;;;5.00;2.00;;;;;;;;;;108435;1251;23017;-81
2023/06/28 10:55:13;;;;;;;6.40;1.70;;;;;;;;;;108273;1249;22663;-81
2023/06/28 10:57:39;;;;;;;8.70;2.20;;;;;;;;;;108459;1250;22546;-81
2023/06/28 11:00:09;;;;;;;8.10;2.10;;;;;;;;;;108316;1251;22553;-81
2023/06/28 11:02:53;;;;;;;9.20;2.00;;;;;;;;;;108289;1251;22575;-81
2023/06/28 11:05:38;;;;;;;2.30;1.30;;;;;;;;;;108991;1251;22550;-81
2023/06/28 11:08:11;;;;;;;4.60;1.80;;;;;;;;;;108448;1251;25447;-81
2023/06/28 11:10:38;;;;;;;7.20;1.90;;;;;;;;;;108287;1251;24280;-81
2023/06/28 11:13:08;;;;;;;7.30;2.10;;;;;;;;;;108253;1251;22525;-81
2023/06/28 11:15:35;;;;;;;8.20;2.90;;;;;;;;;;108454;1251;22619;-81
2023/06/28 11:18:18;;;;;;;7.10;3.20;;;;;;;;;;108634;1251;22562;-81
2023/06/28 11:20:52;;;;;;;8.80;3.10;;;;;;;;;;108530;1251;24251;-81
2023/06/28 11:23:37;;;;;;;9.70;3.50;;;;;;;;;;108401;1251;22540;-81
2023/06/28 11:26:04;;;;;;;7.70;2.80;;;;;;;;;;108402;1251;22568;-80
2023/06/28 11:28:31;;;;;;;9.40;2.90;;;;;;;;;;108674;1251;22540;-80
2023/06/28 11:31:13;;;;;;;7.50;2.70;;;;;;;;;;108488;1252;22524;-81
2023/06/28 11:33:40;;;;;;;5.50;2.90;;;;;;;;;;108466;1250;22540;-81
2023/06/28 11:36:07;;;;;;;3.90;2.00;;;;;;;;;;108721;1251;25389;-81
2023/06/28 11:38:34;;;;;;;4.10;2.00;;;;;;;;;;108594;1251;25339;-81
2023/06/28 11:41:00;;;;;;;4.80;1.80;;;;;;;;;;108430;1251;22598;-81
2023/06/28 11:43:27;;;;;;;8.80;3.20;;;;;;;;;;108414;1251;24249;-82
2023/06/28 11:45:53;;;;;;;7.50;2.70;;;;;;;;;;108547;1253;22543;-81
2023/06/28 11:48:20;;;;;;;3.20;1.40;;;;;;;;;;108633;1250;22551;-82
2023/06/28 11:51:18;;;;;;;4.20;1.30;;;;;;;;;;108355;1250;22565;-81
2023/06/28 11:53:51;;;;;;;4.40;1.70;;;;;;;;;;108004;1256;22554;-82
2023/06/28 11:56:17;;;;;;;3.60;2.30;;;;;;;;;;108151;1255;23388;-82
2023/06/28 11:58:43;;;;;;;4.80;2.70;;;;;;;;;;108336;1257;23305;-82
2023/06/28 12:01:22;;;;;;;7.10;3.30;;;;;;;;;;108242;1255;22568;-82
2023/06/28 12:03:49;;;;;;;4.40;2.10;;;;;;;;;;108096;1254;25435;-82
2023/06/28 12:06:15;;;;;;;2.70;1.80;;;;;;;;;;108217;1257;22567;-81
2023/06/28 12:08:41;;;;;;;4.00;2.70;;;;;;;;;;108212;1254;22561;-81
2023/06/28 12:11:14;;;;;;;5.60;2.90;;;;;;;;;;108115;1256;23912;-82
2023/06/28 12:13:41;;;;;;;5.00;3.40;;;;;;;;;;108064;1254;24296;-81
2023/06/28 12:16:12;;;;;;;5.80;2.40;;;;;;;;;;108248;1256;24256;-82
2023/06/28 12:19:14;;;;;;;7.90;3.60;;;;;;;;;;108103;1255;22539;-82
2023/06/28 12:21:40;;;;;;;5.20;2.20;;;;;;;;;;107579;1262;24367;-82
2023/06/28 12:24:26;;;;;;;4.70;2.20;;;;;;;;;;107861;1255;22539;-81
2023/06/28 12:26:56;;;;;;;5.90;2.10;;;;;;;;;;108253;1252;22542;-81
2023/06/28 12:29:23;;;;;;;8.90;2.40;;;;;;;;;;108177;1253;23202;-80
2023/06/28 12:31:52;;;;;;;4.60;2.60;;;;;;;;;;108264;1251;23246;-81
2023/06/28 12:34:25;;;;;;;3.40;1.70;;;;;;;;;;107995;1251;25340;-81
2023/06/28 12:36:55;;;;;;;3.50;1.40;;;;;;;;;;109102;1251;22974;-81
2023/06/28 12:39:28;;;;;;;3.00;2.00;;;;;;;;;;108799;1252;23184;-81
2023/06/28 12:41:59;;;;;;;4.30;1.40;;;;;;;;;;108310;1253;24258;-81
2023/06/28 12:44:25;;;;;;;6.80;2.80;;;;;;;;;;108318;1253;22585;-81
2023/06/28 12:46:52;;;;;;;4.20;2.10;;;;;;;;;;108374;1251;22531;-82
2023/06/28 12:49:18;;;;;;;4.40;2.60;;;;;;;;;;108221;1252;22616;-81
2023/06/28 12:51:44;;;;;;;2.90;1.50;;;;;;;;;;108273;1250;22575;-81
2023/06/28 12:54:12;;;;;;;4.00;2.20;;;;;;;;;;108174;1252;23191;-80
2023/06/28 12:56:38;;;;;;;3.90;2.70;;;;;;;;;;108258;1254;25261;-81
2023/06/28 12:59:04;;;;;;;3.90;2.10;;;;;;;;;;108292;1252;22556;-81
2023/06/28 13:01:33;;;;;;;2.70;1.60;;;;;;;;;;108093;1253;22534;-80
2023/06/28 13:03:59;;;;;;;4.00;1.70;;;;;;;;;;108055;1251;22520;-80
2023/06/28 13:06:26;;;;;;;2.70;1.90;;;;;;;;;;108199;1255;22516;-80
2023/06/28 13:08:52;;;;;;;6.50;2.50;;;;;;;;;;108188;1252;25343;-80
2023/06/28 13:11:18;;;;;;;6.50;1.90;;;;;;;;;;108003;1251;22576;-81
2023/06/28 13:13:45;;;;;;;4.20;1.60;;;;;;;;;;108001;1251;22530;-80
2023/06/28 13:16:11;;;;;;;4.80;2.10;;;;;;;;;;108055;1251;23311;-81
2023/06/28 13:18:38;;;;;;;5.50;2.80;;;;;;;;;;108187;1251;22526;-81
2023/06/28 13:21:04;;;;;;;6.50;2.20;;;;;;;;;;108057;1252;24368;-82
2023/06/28 13:23:31;;;;;;;3.70;1.80;;;;;;;;;;108129;1251;23275;-81
2023/06/28 13:25:59;;;;;;;6.20;2.00;;;;;;;;;;108236;1252;22543;-81
2023/06/28 13:28:26;;;;;;;3.10;1.80;;;;;;;;;;109062;1251;22536;-83
2023/06/28 13:30:53;;;;;;;2.80;1.50;;;;;;;;;;108128;1253;26992;-83
2023/06/28 13:33:19;;;;;;;8.20;2.90;;;;;;;;;;108175;1253;22520;-83
2023/06/28 13:35:46;;;;;;;4.60;2.70;;;;;;;;;;108023;1252;23253;-82
2023/06/28 13:38:12;;;;;;;3.70;1.70;;;;;;;;;;108206;1252;22751;-82
2023/06/28 13:40:39;;;;;;;2.60;1.50;;;;;;;;;;108053;1251;22536;-82
2023/06/28 13:43:07;;;;;;;4.80;2.20;;;;;;;;;;107956;1253;22746;-83
2023/06/28 13:45:34;;;;;;;6.00;3.20;;;;;;;;;;108023;1252;22643;-82
2023/06/28 13:48:00;;;;;;;6.40;2.50;;;;;;;;;;108251;1252;22617;-82
2023/06/28 13:50:26;;;;;;;11.30;2.70;;;;;;;;;;107991;1250;22555;-82
2023/06/28 13:52:53;;;;;;;3.10;2.00;;;;;;;;;;108039;1251;22588;-83
2023/06/28 13:55:19;;;;;;;4.60;2.50;;;;;;;;;;107987;1251;24381;-82
2023/06/28 13:57:45;;;;;;;8.40;2.70;;;;;;;;;;108237;1251;22820;-82
2023/06/28 14:00:12;;;;;;;4.50;2.20;;;;;;;;;;107879;1251;24244;-82
2023/06/28 14:02:39;;;;;;;5.30;2.30;;;;;;;;;;108091;1250;24236;-82
2023/06/28 14:05:06;;;;;;;3.40;2.00;;;;;;;;;;108034;1252;22536;-81
2023/06/28 14:07:32;;;;;;;4.20;2.50;;;;;;;;;;108199;1251;24368;-82
2023/06/28 14:09:59;;;;;;;5.30;2.70;;;;;;;;;;108052;1250;24207;-82
2023/06/28 14:12:26;;;;;;;5.90;3.40;;;;;;;;;;108346;1252;22534;-82
2023/06/28 14:14:52;;;;;;;5.20;2.00;;;;;;;;;;108111;1253;24195;-82
2023/06/28 14:17:19;;;;;;;5.10;1.80;;;;;;;;;;108534;1255;23713;-82
2023/06/28 14:19:45;;;;;;;4.70;2.50;;;;;;;;;;108538;1250;22593;-82
2023/06/28 14:22:12;;;;;;;4.30;1.80;;;;;;;;;;108614;1253;22634;-82
2023/06/28 14:24:38;;;;;;;5.90;2.20;;;;;;;;;;108728;1251;22570;-82
2023/06/28 14:27:04;;;;;;;5.60;2.20;;;;;;;;;;108546;1251;22625;-82
2023/06/28 14:29:31;;;;;;;5.40;2.40;;;;;;;;;;108394;1251;25315;-82